createdAt,value
2022-08-09T00:01:52.840Z,102402.13
2022-08-09T00:05:03.568Z,102406.75
2022-08-09T00:08:32.531Z,102402.44
2022-08-09T00:11:58.617Z,102409.69
2022-08-09T00:14:58.337Z,102405.13
2022-08-09T00:18:11.104Z,102411.34
2022-08-09T00:21:14.356Z,102405.25
2022-08-09T00:24:18.354Z,102409.69
2022-08-09T00:27:22.490Z,102403.97
2022-08-09T00:30:26.910Z,102409.31
2022-08-09T00:33:48.814Z,102411.19
2022-08-09T00:36:52.386Z,102416.81
2022-08-09T00:40:13.770Z,102415.94
2022-08-09T00:44:13.639Z,102416.91
2022-08-09T00:46:56.429Z,102409.63
2022-08-09T00:50:05.250Z,102413.69
2022-08-09T00:53:10.174Z,102410.91
2022-08-09T00:56:16.533Z,102404.84
2022-08-09T00:59:31.602Z,102408.66
2022-08-09T01:02:48.882Z,102407.75
2022-08-09T01:05:58.301Z,102412.28
2022-08-09T01:09:19.438Z,102404.44
2022-08-09T01:12:34.225Z,102407.31
2022-08-09T01:15:52.425Z,102403.06
2022-08-09T01:19:02.297Z,102401.47
2022-08-09T01:22:28.437Z,102416.44
2022-08-09T01:25:50.974Z,102419.03
2022-08-09T01:28:57.298Z,102417.28
2022-08-09T01:32:30.873Z,102416.16
2022-08-09T01:35:38.650Z,102415.91
2022-08-09T01:38:46.624Z,102412.84
2022-08-09T01:41:53.593Z,102416.38
2022-08-09T01:45:05.685Z,102415.22
2022-08-09T01:48:10.800Z,102415.13
2022-08-09T01:51:23.012Z,102409.16
2022-08-09T01:54:33.018Z,102405.97
2022-08-09T01:57:46.110Z,102409.44
2022-08-09T02:00:55.888Z,102408.88
2022-08-09T02:04:00.834Z,102416.78
2022-08-09T02:07:17.884Z,102426.69
2022-08-09T02:10:30.017Z,102419.53
2022-08-09T02:13:40.297Z,102422.25
2022-08-09T02:16:59.040Z,102427.06
2022-08-09T02:20:08.979Z,102421.84
2022-08-09T02:23:20.730Z,102422.13
2022-08-09T02:26:29.114Z,102419.38
2022-08-09T02:29:37.919Z,102420.16
2022-08-09T02:32:45.928Z,102420.38
2022-08-09T02:36:02.665Z,102420.38
2022-08-09T02:39:14.571Z,102416.13
2022-08-09T02:42:26.398Z,102422.56
2022-08-09T02:45:32.777Z,102417.22
2022-08-09T02:48:38.746Z,102417.22
2022-08-09T02:51:56.718Z,102422.66
2022-08-09T02:55:20.051Z,102420.38
2022-08-09T02:58:36.915Z,102419.97
2022-08-09T03:01:43.341Z,102411.06
2022-08-09T03:05:08.491Z,102413.44
2022-08-09T03:08:19.959Z,102411.16
2022-08-09T03:12:04.571Z,102413.75
2022-08-09T03:14:48.189Z,102414.56
2022-08-09T03:17:54.010Z,102426.09
2022-08-09T03:21:04.595Z,102416.63
2022-08-09T03:24:07.461Z,102412.09
2022-08-09T03:27:14.515Z,102416.91
2022-08-09T03:30:29.630Z,102416.84
2022-08-09T03:33:54.497Z,102413.38
2022-08-09T03:37:10.540Z,102424.13
2022-08-09T03:40:22.449Z,102423.31
2022-08-09T03:43:32.154Z,102425.47
2022-08-09T03:46:36.763Z,102423.94
2022-08-09T03:49:41.786Z,102425.38
2022-08-09T03:53:04.246Z,102428.91
2022-08-09T03:56:09.461Z,102428.88
2022-08-09T03:59:17.269Z,102435.03
2022-08-09T04:02:26.588Z,102426.91
2022-08-09T04:05:29.694Z,102432.56
2022-08-09T04:08:36.229Z,102433.19
2022-08-09T04:11:55.670Z,102426.50
2022-08-09T04:15:02.147Z,102433.38
2022-08-09T04:18:17.832Z,102436.88
2022-08-09T04:21:20.811Z,102441.63
2022-08-09T04:24:26.870Z,102445.94
2022-08-09T04:27:29.952Z,102449.03
2022-08-09T04:30:35.476Z,102447.16
2022-08-09T04:33:47.489Z,102441.63
2022-08-09T04:36:55.858Z,102441.28
2022-08-09T04:39:59.768Z,102440.56
2022-08-09T04:43:05.582Z,102440.78
2022-08-09T04:46:08.224Z,102442.56
2022-08-09T04:49:30.160Z,102440.91
2022-08-09T04:52:44.585Z,102438.13
2022-08-09T04:55:57.672Z,102440.72
2022-08-09T04:59:06.067Z,102444.47
2022-08-09T05:02:15.611Z,102447.38
2022-08-09T05:05:18.972Z,102452.84
2022-08-09T05:08:35.427Z,102448.09
2022-08-09T05:11:39.945Z,102454.22
2022-08-09T05:14:46.120Z,102456.09
2022-08-09T05:18:38.288Z,102471.94
2022-08-09T05:21:20.760Z,102468.41
2022-08-09T05:24:26.993Z,102471.06
2022-08-09T05:27:31.354Z,102471.53
2022-08-09T05:30:34.441Z,102484.47
2022-08-09T05:33:42.576Z,102488.44
2022-08-09T05:36:46.833Z,102493.16
2022-08-09T05:39:50.261Z,102486.47
2022-08-09T05:42:54.194Z,102489.25
2022-08-09T05:45:57.840Z,102493.34
2022-08-09T05:49:00.582Z,102494.84
2022-08-09T05:52:03.203Z,102500.69
2022-08-09T05:55:08.774Z,102500.28
2022-08-09T05:58:18.367Z,102496.63
2022-08-09T06:01:21.163Z,102500.44
2022-08-09T06:04:24.417Z,102502.69
2022-08-09T06:07:37.789Z,102506.72
2022-08-09T06:10:40.848Z,102508.84
2022-08-09T06:13:45.831Z,102507.63
2022-08-09T06:16:52.501Z,102511.03
2022-08-09T06:19:55.367Z,102508.91
2022-08-09T06:22:57.955Z,102517.91
2022-08-09T06:26:01.402Z,102516.78
2022-08-09T06:29:05.685Z,102521.56
2022-08-09T06:33:00.999Z,102524.84
2022-08-09T06:35:56.353Z,102523.25
2022-08-09T06:38:53.935Z,102523.78
2022-08-09T06:42:09.161Z,102528.97
2022-08-09T06:46:04.419Z,102529.44
2022-08-09T06:48:42.748Z,102526.72
2022-08-09T06:51:45.975Z,102532.84
2022-08-09T06:54:48.902Z,102535.34
2022-08-09T06:58:01.805Z,102536.34
2022-08-09T07:01:08.253Z,102539.13
2022-08-09T07:04:10.814Z,102537.97
2022-08-09T07:07:58.450Z,102530.84
2022-08-09T07:10:45.757Z,102528.03
2022-08-09T07:14:04.880Z,102530.88
2022-08-09T07:17:10.072Z,102530.69
2022-08-09T07:20:15.777Z,102537.59
2022-08-09T07:23:19.844Z,102542.00
2022-08-09T07:26:22.616Z,102541.69
2022-08-09T07:29:26.263Z,102545.16
2022-08-09T07:32:35.079Z,102543.84
2022-08-09T07:35:53.378Z,102545.91
2022-08-09T07:39:01.060Z,102533.66
2022-08-09T07:42:05.265Z,102542.09
2022-08-09T07:45:23.126Z,102543.69
2022-08-09T07:48:35.228Z,102536.28
2022-08-09T07:52:06.047Z,102548.47
2022-08-09T07:55:10.013Z,102541.25
2022-08-09T07:58:14.436Z,102555.59
2022-08-09T08:01:17.029Z,102552.34
2022-08-09T08:04:31.930Z,102551.81
2022-08-09T08:08:43.864Z,102551.50
2022-08-09T08:11:03.371Z,102551.19
2022-08-09T08:14:21.062Z,102557.72
2022-08-09T08:17:53.009Z,102556.00
2022-08-09T08:20:50.697Z,102555.78
2022-08-09T08:23:55.578Z,102547.88
2022-08-09T08:27:00.100Z,102544.00
2022-08-09T08:30:04.373Z,102546.13
2022-08-09T08:33:07.745Z,102548.78
2022-08-09T08:36:28.318Z,102551.13
2022-08-09T08:39:39.667Z,102553.56
2022-08-09T08:42:47.610Z,102549.28
2022-08-09T08:46:03.750Z,102549.75
2022-08-09T08:49:12.995Z,102551.47
2022-08-09T08:52:57.290Z,102557.28
2022-08-09T08:55:52.549Z,102560.22
2022-08-09T08:58:55.591Z,102561.56
2022-08-09T09:01:58.694Z,102565.25
2022-08-09T09:05:06.053Z,102563.53
2022-08-09T09:08:30.199Z,102568.47
2022-08-09T09:11:38.462Z,102564.31
2022-08-09T09:14:43.237Z,102552.56
2022-08-09T09:17:49.073Z,102558.03
2022-08-09T09:20:55.982Z,102555.22
2022-08-09T09:24:10.564Z,102549.97
2022-08-09T09:28:06.380Z,102553.41
2022-08-09T09:30:57.235Z,102557.94
2022-08-09T09:34:14.711Z,102563.66
2022-08-09T09:37:31.851Z,102556.00
2022-08-09T09:40:46.514Z,102557.34
2022-08-09T09:44:12.035Z,102555.94
2022-08-09T09:47:17.268Z,102561.16
2022-08-09T09:50:49.663Z,102561.78
2022-08-09T09:54:20.461Z,102557.19
2022-08-09T09:58:02.569Z,102565.94
2022-08-09T10:00:54.212Z,102557.25
2022-08-09T10:04:01.467Z,102561.25
2022-08-09T10:07:09.778Z,102563.88
2022-08-09T10:10:12.828Z,102563.47
2022-08-09T10:13:24.906Z,102561.84
2022-08-09T10:16:56.587Z,102552.66
2022-08-09T10:20:14.921Z,102549.66
2022-08-09T10:23:21.815Z,102555.81
2022-08-09T10:26:26.735Z,102559.03
2022-08-09T10:30:43.753Z,102548.66
2022-08-09T10:32:56.118Z,102547.00
2022-08-09T10:36:01.187Z,102545.88
2022-08-09T10:39:05.975Z,102548.25
2022-08-09T10:42:18.759Z,102545.88
2022-08-09T10:45:24.157Z,102540.94
2022-08-09T10:48:42.938Z,102545.66
2022-08-09T10:51:55.074Z,102542.03
2022-08-09T10:55:03.516Z,102539.84
2022-08-09T10:58:06.250Z,102525.28
2022-08-09T11:03:13.390Z,102525.81
2022-08-09T11:05:24.885Z,102532.53
2022-08-09T11:08:47.391Z,102536.44
2022-08-09T11:12:10.335Z,102535.91
2022-08-09T11:15:33.587Z,102535.97
2022-08-09T11:18:46.012Z,102528.31
2022-08-09T11:21:57.102Z,102522.69
2022-08-09T11:25:10.332Z,102530.81
2022-08-09T11:28:54.236Z,102527.41
2022-08-09T11:31:59.819Z,102525.22
2022-08-09T11:35:07.737Z,102525.53
2022-08-09T11:38:17.706Z,102510.00
2022-08-09T11:41:38.311Z,102518.28
2022-08-09T11:44:46.332Z,102514.47
2022-08-09T11:47:50.133Z,102518.81
2022-08-09T11:53:02.282Z,102514.94
2022-08-09T11:54:33.446Z,102503.31
2022-08-09T11:57:47.881Z,102495.72
2022-08-09T12:01:03.488Z,102489.41
2022-08-09T12:04:23.653Z,102496.69
2022-08-09T12:07:41.314Z,102489.50
2022-08-09T12:10:52.966Z,102484.31
2022-08-09T12:14:07.633Z,102475.50
2022-08-09T12:17:28.257Z,102481.44
2022-08-09T12:20:43.621Z,102478.44
2022-08-09T12:24:06.447Z,102476.81
2022-08-09T12:29:11.902Z,102472.00
2022-08-09T12:30:44.181Z,102476.03
2022-08-09T12:33:58.800Z,102477.56
2022-08-09T12:37:21.466Z,102480.19
2022-08-09T12:40:28.510Z,102473.09
2022-08-09T12:44:05.585Z,102469.50
2022-08-09T12:46:55.837Z,102469.63
2022-08-09T12:50:16.205Z,102468.72
2022-08-09T12:53:35.119Z,102463.06
2022-08-09T12:56:51.246Z,102460.22
2022-08-09T13:00:13.007Z,102458.31
2022-08-09T13:03:28.490Z,102455.91
2022-08-09T13:06:50.744Z,102446.19
2022-08-09T13:10:02.653Z,102442.00
2022-08-09T13:13:09.585Z,102446.84
2022-08-09T13:16:17.728Z,102445.38
2022-08-09T13:20:10.333Z,102439.38
2022-08-09T13:23:01.007Z,102440.75
2022-08-09T13:26:10.044Z,102442.22
2022-08-09T13:29:16.251Z,102439.88
2022-08-09T13:32:27.643Z,102443.00
2022-08-09T13:35:34.215Z,102428.19
2022-08-09T13:38:55.667Z,102431.34
2022-08-09T13:42:03.229Z,102434.84
2022-08-09T13:45:12.404Z,102418.47
2022-08-09T13:48:15.717Z,102422.16
2022-08-09T13:51:18.367Z,102429.91
2022-08-09T13:54:21.323Z,102422.66
2022-08-09T13:57:36.248Z,102426.25
2022-08-09T14:00:46.761Z,102428.31
2022-08-09T14:04:02.931Z,102431.72
2022-08-09T14:07:07.072Z,102429.28
2022-08-09T14:10:17.372Z,102426.84
2022-08-09T14:14:22.487Z,102428.03
2022-08-09T14:16:59.390Z,102425.97
2022-08-09T14:20:03.000Z,102431.72
2022-08-09T14:23:06.726Z,102431.94
2022-08-09T14:26:10.060Z,102427.56
2022-08-09T14:30:03.904Z,102426.53
2022-08-09T14:32:40.230Z,102427.03
2022-08-09T14:35:52.905Z,102429.66
2022-08-09T14:38:56.007Z,102424.91
2022-08-09T14:41:58.962Z,102440.03
2022-08-09T14:46:39.965Z,102428.72
2022-08-09T14:48:27.869Z,102427.94
2022-08-09T14:51:42.269Z,102435.59
2022-08-09T14:54:45.331Z,102438.34
2022-08-09T14:57:47.911Z,102444.16
2022-08-09T15:00:52.021Z,102433.41
2022-08-09T15:03:56.266Z,102441.09
2022-08-09T15:06:58.865Z,102441.13
2022-08-09T15:10:07.301Z,102450.28
2022-08-09T15:13:15.241Z,102443.09
2022-08-09T15:16:19.549Z,102447.81
2022-08-09T15:19:26.022Z,102439.38
2022-08-09T15:22:28.852Z,102429.13
2022-08-09T15:25:38.975Z,102430.38
2022-08-09T15:28:43.911Z,102423.19
2022-08-09T15:31:57.789Z,102424.06
2022-08-09T15:35:02.295Z,102431.84
2022-08-09T15:38:24.873Z,102425.06
2022-08-09T15:41:31.405Z,102426.03
2022-08-09T15:44:34.987Z,102418.09
2022-08-09T15:47:51.501Z,102416.84
2022-08-09T15:50:57.287Z,102413.59
2022-08-09T15:54:04.581Z,102408.06
2022-08-09T15:57:10.781Z,102405.28
2022-08-09T16:00:17.014Z,102404.28
2022-08-09T16:03:38.279Z,102411.06
2022-08-09T16:06:50.676Z,102409.13
2022-08-09T16:10:04.570Z,102406.16
2022-08-09T16:13:20.822Z,102404.44
2022-08-09T16:16:31.633Z,102414.41
2022-08-09T16:19:36.843Z,102405.03
2022-08-09T16:22:53.089Z,102399.41
2022-08-09T16:26:02.556Z,102397.09
2022-08-09T16:29:11.368Z,102393.56
2022-08-09T16:32:33.049Z,102390.06
2022-08-09T16:35:57.270Z,102383.41
2022-08-09T16:39:02.233Z,102381.28
2022-08-09T16:42:06.964Z,102388.09
2022-08-09T16:45:10.561Z,102386.47
2022-08-09T16:48:38.471Z,102391.69
2022-08-09T16:51:36.654Z,102385.78
2022-08-09T16:54:41.402Z,102385.84
2022-08-09T16:58:08.640Z,102386.84
2022-08-09T17:01:07.974Z,102390.47
2022-08-09T17:04:13.835Z,102396.66
2022-08-09T17:08:46.509Z,102396.97
2022-08-09T17:10:55.570Z,102399.63
2022-08-09T17:14:01.787Z,102401.63
2022-08-09T17:17:26.102Z,102409.22
2022-08-09T17:20:37.690Z,102408.72
2022-08-09T17:24:20.443Z,102420.78
2022-08-09T17:27:15.361Z,102422.97
2022-08-09T17:30:20.432Z,102422.44
2022-08-09T17:33:23.307Z,102426.25
2022-08-09T17:36:26.421Z,102432.97
2022-08-09T17:39:52.972Z,102428.75
2022-08-09T17:42:59.687Z,102426.59
2022-08-09T17:46:13.591Z,102432.41
2022-08-09T17:49:21.254Z,102430.31
2022-08-09T17:52:24.404Z,102434.00
2022-08-09T17:55:34.361Z,102442.91
2022-08-09T17:58:51.305Z,102442.47
2022-08-09T18:02:06.606Z,102437.28
2022-08-09T18:05:15.358Z,102443.53
2022-08-09T18:08:18.032Z,102442.69
2022-08-09T18:11:24.988Z,102442.84
2022-08-09T18:14:30.697Z,102450.00
2022-08-09T18:18:03.431Z,102450.47
2022-08-09T18:21:18.894Z,102450.53
2022-08-09T18:24:18.651Z,102454.97
2022-08-09T18:28:02.234Z,102452.66
2022-08-09T18:30:49.568Z,102450.78
2022-08-09T18:33:53.703Z,102453.38
2022-08-09T18:36:56.606Z,102454.38
2022-08-09T18:39:59.322Z,102452.28
2022-08-09T18:43:02.128Z,102452.16
2022-08-09T18:46:50.844Z,102451.44
2022-08-09T18:49:32.139Z,102462.84
2022-08-09T18:52:46.463Z,102460.13
2022-08-09T18:55:57.146Z,102464.06
2022-08-09T18:59:03.627Z,102467.72
2022-08-09T19:02:09.186Z,102466.97
2022-08-09T19:05:20.470Z,102474.47
2022-08-09T19:08:31.691Z,102462.97
2022-08-09T19:11:37.997Z,102459.78
2022-08-09T19:14:43.525Z,102464.59
2022-08-09T19:20:59.253Z,102461.97
2022-08-09T19:24:31.882Z,102462.84
2022-08-09T19:27:28.681Z,102462.84
2022-08-09T19:30:32.324Z,102468.59
2022-08-09T19:33:36.761Z,102466.19
2022-08-09T19:36:39.342Z,102466.91
2022-08-09T19:40:04.960Z,102470.41
2022-08-09T19:43:10.290Z,102469.66
2022-08-09T19:46:35.348Z,102477.31
2022-08-09T19:50:07.317Z,102474.25
2022-08-09T19:53:04.494Z,102474.22
2022-08-09T19:56:07.741Z,102477.19
2022-08-09T19:59:57.273Z,102475.00
2022-08-09T20:04:11.439Z,102477.28
2022-08-09T20:06:22.447Z,102482.66
2022-08-09T20:09:44.991Z,102485.97
2022-08-09T20:12:49.023Z,102493.13
2022-08-09T20:16:35.537Z,102494.50
2022-08-09T20:19:49.544Z,102501.75
2022-08-09T20:22:38.950Z,102509.75
2022-08-09T20:25:52.441Z,102503.47
2022-08-09T20:28:55.763Z,102506.94
2022-08-09T20:32:31.130Z,102501.16
2022-08-09T20:35:21.640Z,102503.56
2022-08-09T20:38:42.133Z,102508.28
2022-08-09T20:41:48.995Z,102515.59
2022-08-09T20:45:04.567Z,102508.03
2022-08-09T20:48:20.825Z,102507.41
2022-08-09T20:51:24.406Z,102510.25
2022-08-09T20:54:28.927Z,102516.50
2022-08-09T20:57:32.123Z,102507.34
2022-08-09T21:00:35.143Z,102511.63
2022-08-09T21:03:39.441Z,102514.41
2022-08-09T21:07:11.433Z,102518.88
2022-08-09T21:10:17.249Z,102515.34
2022-08-09T21:13:20.039Z,102511.56
2022-08-09T21:16:22.917Z,102503.41
2022-08-09T21:20:18.051Z,102513.00
2022-08-09T21:22:55.601Z,102514.91
2022-08-09T21:26:00.290Z,102516.47
2022-08-09T21:29:11.659Z,102516.78
2022-08-09T21:32:18.842Z,102515.09
2022-08-09T21:35:21.958Z,102520.41
2022-08-09T21:38:30.990Z,102525.13
2022-08-09T21:42:03.930Z,102520.91
2022-08-09T21:44:58.844Z,102522.84
2022-08-09T21:48:02.282Z,102525.09
2022-08-09T21:51:13.305Z,102528.69
2022-08-09T21:54:17.191Z,102524.69
2022-08-09T21:57:25.186Z,102524.75
2022-08-09T22:00:40.572Z,102527.78
2022-08-09T22:03:48.482Z,102527.50
2022-08-09T22:07:04.803Z,102527.97
2022-08-09T22:10:09.159Z,102522.41
2022-08-09T22:13:13.188Z,102518.16
2022-08-09T22:16:21.093Z,102517.22
2022-08-09T22:19:58.368Z,102518.16
2022-08-09T22:22:48.780Z,102520.75
2022-08-09T22:26:06.845Z,102527.66
2022-08-09T22:29:12.762Z,102520.94
2022-08-09T22:32:30.127Z,102529.28
2022-08-09T22:36:01.767Z,102534.75
2022-08-09T22:38:56.749Z,102522.50
2022-08-09T22:42:06.097Z,102524.09
2022-08-09T22:48:12.888Z,102522.41
2022-08-09T22:48:50.460Z,102526.13
2022-08-09T22:51:56.597Z,102517.41
2022-08-09T22:54:59.882Z,102514.78
2022-08-09T22:58:04.968Z,102515.09
2022-08-09T23:01:09.264Z,102507.06
2022-08-09T23:04:11.934Z,102514.47
2022-08-09T23:08:22.072Z,102512.84
2022-08-09T23:10:54.814Z,102515.63
2022-08-09T23:13:58.667Z,102507.94
2022-08-09T23:17:02.662Z,102512.66
2022-08-09T23:20:08.357Z,102516.88
2022-08-09T23:23:11.071Z,102511.06
2022-08-09T23:26:13.683Z,102504.03
2022-08-09T23:29:16.298Z,102501.94
2022-08-09T23:32:20.275Z,102499.66
2022-08-09T23:35:23.063Z,102507.09
2022-08-09T23:38:25.695Z,102510.91
2022-08-09T23:41:29.697Z,102513.19
2022-08-09T23:44:32.711Z,102509.69
2022-08-09T23:47:36.564Z,102520.44
2022-08-09T23:50:39.243Z,102516.81
2022-08-09T23:53:42.191Z,102512.72
2022-08-09T23:56:54.105Z,102519.91
